createdAt,value
2018-08-09T00:00:46.705Z,36.1
2018-08-09T00:01:48.615Z,36.1
2018-08-09T00:02:50.775Z,36.1
2018-08-09T00:03:52.958Z,36.1
2018-08-09T00:04:55.395Z,36.1
2018-08-09T00:05:57.575Z,36.1
2018-08-09T00:07:00.015Z,36
2018-08-09T00:08:01.926Z,36
2018-08-09T00:09:04.097Z,36
2018-08-09T00:10:06.267Z,36
2018-08-09T00:11:08.444Z,36
2018-08-09T00:12:10.351Z,36
2018-08-09T00:13:12.537Z,36.1
2018-08-09T00:14:14.982Z,36
2018-08-09T00:15:17.166Z,36.2
2018-08-09T00:16:19.350Z,36
2018-08-09T00:17:21.792Z,36
2018-08-09T00:18:23.957Z,36
2018-08-09T00:19:26.410Z,36.1
2018-08-09T00:20:28.873Z,36.2
2018-08-09T00:21:31.331Z,36.1
2018-08-09T00:22:33.508Z,36
2018-08-09T00:23:35.956Z,36.1
2018-08-09T00:24:38.164Z,36.1
2018-08-09T00:25:40.606Z,36.1
2018-08-09T00:26:42.496Z,36.1
2018-08-09T00:27:44.381Z,35.9
2018-08-09T00:28:46.547Z,36.1
2018-08-09T00:29:48.173Z,36.2
2018-08-09T00:30:50.090Z,36.1
2018-08-09T00:31:52.532Z,36.1
2018-08-09T00:32:54.987Z,36
2018-08-09T00:33:57.166Z,36.2
2018-08-09T00:34:59.614Z,36
2018-08-09T00:36:02.079Z,36.1
2018-08-09T00:37:04.015Z,36.1
2018-08-09T00:38:06.207Z,36
2018-08-09T00:39:08.647Z,36.1
2018-08-09T00:40:10.837Z,36.1
2018-08-09T00:41:13.286Z,36
2018-08-09T00:42:15.434Z,36.1
2018-08-09T00:43:17.602Z,36.1
2018-08-09T00:44:20.085Z,36.2
2018-08-09T00:45:22.249Z,36.1
2018-08-09T00:46:24.706Z,36.1
2018-08-09T00:47:26.586Z,36
2018-08-09T00:48:29.041Z,36
2018-08-09T00:49:30.683Z,36
2018-08-09T00:50:32.861Z,36.2
2018-08-09T00:51:35.027Z,36
2018-08-09T00:52:37.476Z,36.1
2018-08-09T00:53:39.941Z,36.1
2018-08-09T00:54:42.393Z,36
2018-08-09T00:55:44.545Z,36.2
2018-08-09T00:56:46.990Z,36.1
2018-08-09T00:57:49.440Z,36.1
2018-08-09T00:58:51.885Z,36.2
2018-08-09T00:59:54.329Z,36.1
2018-08-09T01:00:56.231Z,36.2
2018-08-09T01:01:58.670Z,36
2018-08-09T01:03:01.119Z,36.1
2018-08-09T01:04:03.035Z,36.2
2018-08-09T01:05:05.493Z,36
2018-08-09T01:06:07.396Z,36
2018-08-09T01:07:09.846Z,36
2018-08-09T01:08:12.023Z,36.2
2018-08-09T01:09:13.929Z,36.2
2018-08-09T01:10:15.841Z,36.1
2018-08-09T01:11:18.295Z,36.1
2018-08-09T01:12:20.224Z,36.1
2018-08-09T01:13:22.389Z,36
2018-08-09T01:14:24.837Z,36.2
2018-08-09T01:15:27.018Z,36.3
2018-08-09T01:16:29.469Z,36
2018-08-09T01:17:31.675Z,36.2
2018-08-09T01:18:33.829Z,36.1
2018-08-09T01:19:36.268Z,36.1
2018-08-09T01:20:38.431Z,36.1
2018-08-09T01:21:40.616Z,36.1
2018-08-09T01:22:43.067Z,36.3
2018-08-09T01:23:45.505Z,36.1
2018-08-09T01:24:47.956Z,36.2
2018-08-09T01:25:50.140Z,36.2
2018-08-09T01:26:52.330Z,36.2
2018-08-09T01:27:54.777Z,36.1
2018-08-09T01:28:56.690Z,36.3
2018-08-09T01:29:58.618Z,36.4
2018-08-09T01:31:00.770Z,36.2
2018-08-09T01:32:02.680Z,36.2
2018-08-09T01:33:04.838Z,36.2
2018-08-09T01:34:07.007Z,36.1
2018-08-09T01:35:09.226Z,36.1
2018-08-09T01:36:11.415Z,36.2
2018-08-09T01:37:13.309Z,36.1
2018-08-09T01:38:15.184Z,36.2
2018-08-09T01:39:17.353Z,36.1
2018-08-09T01:40:19.531Z,36.2
2018-08-09T01:41:21.982Z,36.3
2018-08-09T01:42:23.620Z,36.2
2018-08-09T01:43:25.779Z,36.3
2018-08-09T01:44:27.956Z,36.3
2018-08-09T01:45:29.868Z,36.2
2018-08-09T01:46:32.321Z,36.1
2018-08-09T01:47:34.227Z,36.3
2018-08-09T01:48:36.370Z,36.2
2018-08-09T01:49:38.821Z,36.2
2018-08-09T01:50:41.006Z,36.3
2018-08-09T01:51:43.455Z,36.3
2018-08-09T01:52:45.643Z,36.2
2018-08-09T01:53:48.083Z,36.2
2018-08-09T01:54:50.526Z,36.2
2018-08-09T01:55:52.444Z,36.2
2018-08-09T01:56:54.900Z,36.1
2018-08-09T01:57:57.068Z,36.1
2018-08-09T01:58:59.507Z,36.2
2018-08-09T02:00:01.687Z,36.2
2018-08-09T02:01:03.869Z,36.2
2018-08-09T02:02:06.065Z,36.1
2018-08-09T02:03:08.238Z,36.2
2018-08-09T02:04:10.137Z,36.2
2018-08-09T02:05:12.592Z,36
2018-08-09T02:06:14.783Z,36.2
2018-08-09T02:07:17.091Z,36.1
2018-08-09T02:08:19.287Z,36.2
2018-08-09T02:09:21.457Z,36.1
2018-08-09T02:10:23.634Z,36.1
2018-08-09T02:11:25.825Z,36.2
2018-08-09T02:12:28.280Z,36.2
2018-08-09T02:13:30.722Z,36.1
2018-08-09T02:14:33.166Z,36.1
2018-08-09T02:15:35.307Z,36.1
2018-08-09T02:16:37.205Z,36.1
2018-08-09T02:17:39.659Z,36.2
2018-08-09T02:18:42.112Z,36.2
2018-08-09T02:19:44.558Z,36.1
2018-08-09T02:20:46.722Z,36.4
2018-08-09T02:21:48.593Z,36.3
2018-08-09T02:22:50.764Z,36.1
2018-08-09T02:23:52.368Z,36.1
2018-08-09T02:24:54.831Z,36.1
2018-08-09T02:25:56.458Z,36.2
2018-08-09T02:26:58.908Z,36.1
2018-08-09T02:28:00.827Z,36.2
2018-08-09T02:29:03.279Z,36.2
2018-08-09T02:30:05.461Z,36
2018-08-09T02:31:07.905Z,36.2
2018-08-09T02:32:10.387Z,36.2
2018-08-09T02:33:12.548Z,36.3
2018-08-09T02:34:14.992Z,36.3
2018-08-09T02:35:17.159Z,36.2
2018-08-09T02:36:19.667Z,36.3
2018-08-09T02:37:22.109Z,36.2
2018-08-09T02:38:24.570Z,36.3
2018-08-09T02:39:27.008Z,36.2
2018-08-09T02:40:29.447Z,36
2018-08-09T02:41:31.613Z,36.2
2018-08-09T02:42:33.789Z,36.1
2018-08-09T02:43:35.669Z,36.1
2018-08-09T02:44:37.839Z,36.2
2018-08-09T02:45:40.290Z,36.2
2018-08-09T02:46:42.886Z,36.3
2018-08-09T02:47:44.971Z,36.1
2018-08-09T02:48:47.151Z,36.1
2018-08-09T02:49:49.341Z,36.2
2018-08-09T02:50:51.833Z,36.1
2018-08-09T02:51:53.736Z,36.1
2018-08-09T02:52:55.918Z,36.2
2018-08-09T02:53:57.796Z,36.3
2018-08-09T02:54:59.703Z,36.2
2018-08-09T02:56:01.636Z,36.1
2018-08-09T02:57:04.078Z,36.1
2018-08-09T02:58:06.262Z,36.2
2018-08-09T02:59:08.187Z,36
2018-08-09T03:00:10.633Z,36.2
2018-08-09T03:01:12.790Z,36.2
2018-08-09T03:02:14.688Z,36.2
2018-08-09T03:03:16.838Z,36.3
2018-08-09T03:04:19.022Z,36.1
2018-08-09T03:05:21.491Z,36.2
2018-08-09T03:06:23.641Z,36.1
2018-08-09T03:07:26.078Z,36
2018-08-09T03:08:28.018Z,36
2018-08-09T03:09:30.168Z,36.2
2018-08-09T03:10:32.622Z,36.1
2018-08-09T03:11:35.078Z,36.2
2018-08-09T03:12:37.532Z,36
2018-08-09T03:13:39.723Z,36.1
2018-08-09T03:14:41.597Z,36.1
2018-08-09T03:15:43.767Z,36
2018-08-09T03:16:45.945Z,36
2018-08-09T03:17:48.396Z,36.3
2018-08-09T03:18:50.296Z,36.2
2018-08-09T03:19:52.205Z,36
2018-08-09T03:20:54.377Z,35.9
2018-08-09T03:21:55.757Z,36.1
2018-08-09T03:22:57.951Z,36.2
2018-08-09T03:24:00.387Z,36.1
2018-08-09T03:25:02.844Z,36.1
2018-08-09T03:26:05.027Z,36.2
2018-08-09T03:27:07.157Z,36.1
2018-08-09T03:28:09.331Z,36.1
2018-08-09T03:29:11.240Z,36.2
2018-08-09T03:30:12.857Z,36
2018-08-09T03:31:15.032Z,36
2018-08-09T03:32:16.924Z,36.2
2018-08-09T03:33:19.106Z,36.1
2018-08-09T03:34:21.544Z,36.1
2018-08-09T03:35:23.714Z,36.1
2018-08-09T03:36:25.880Z,36.2
2018-08-09T03:37:27.787Z,36.1
2018-08-09T03:38:29.983Z,36
2018-08-09T03:39:32.122Z,36.2
2018-08-09T03:40:34.574Z,36.1
2018-08-09T03:41:36.755Z,36.2
2018-08-09T03:42:38.923Z,36.2
2018-08-09T03:43:41.367Z,36
2018-08-09T03:44:43.564Z,36.1
2018-08-09T03:45:45.737Z,36.2
2018-08-09T03:46:47.877Z,36.1
2018-08-09T03:47:50.048Z,36.1
2018-08-09T03:48:52.491Z,36.2
2018-08-09T03:49:54.634Z,36.1
2018-08-09T03:50:56.820Z,36.1
2018-08-09T03:51:58.716Z,36.2
2018-08-09T03:53:00.625Z,36.2
2018-08-09T03:54:03.066Z,36
2018-08-09T03:55:04.431Z,36.2
2018-08-09T03:56:06.596Z,36.3
2018-08-09T03:57:08.757Z,36.2
2018-08-09T03:58:10.977Z,36
2018-08-09T03:59:12.578Z,36
2018-08-09T04:00:14.463Z,36
2018-08-09T04:01:16.647Z,36
2018-08-09T04:02:18.246Z,36.1
2018-08-09T04:03:20.427Z,36.2
2018-08-09T04:04:22.602Z,36.1
2018-08-09T04:05:24.771Z,36
2018-08-09T04:06:26.922Z,36.1
2018-08-09T04:07:29.379Z,36.2
2018-08-09T04:08:31.829Z,36
2018-08-09T04:09:34.299Z,36.3
2018-08-09T04:10:36.207Z,36.1
2018-08-09T04:11:38.693Z,36.2
2018-08-09T04:12:40.950Z,35.9
2018-08-09T04:13:43.120Z,36.1
2018-08-09T04:14:45.289Z,36.1
2018-08-09T04:15:47.477Z,36
2018-08-09T04:16:49.617Z,36.1
2018-08-09T04:17:52.133Z,36.2
2018-08-09T04:18:54.393Z,36.1
2018-08-09T04:19:56.843Z,36.1
2018-08-09T04:20:58.739Z,36.1
2018-08-09T04:22:00.651Z,35.9
2018-08-09T04:23:02.517Z,36.2
2018-08-09T04:24:04.701Z,36.2
2018-08-09T04:25:07.157Z,36.2
2018-08-09T04:26:09.350Z,36.2
2018-08-09T04:27:11.502Z,36.2
2018-08-09T04:28:13.126Z,36.1
2018-08-09T04:29:15.280Z,36.1
2018-08-09T04:30:17.737Z,36.1
2018-08-09T04:31:19.912Z,35.9
2018-08-09T04:32:22.362Z,36
2018-08-09T04:33:24.549Z,36
2018-08-09T04:34:27.001Z,36.2
2018-08-09T04:35:29.448Z,36.1
2018-08-09T04:36:31.617Z,36
2018-08-09T04:37:34.056Z,36
2018-08-09T04:38:36.500Z,36
2018-08-09T04:39:38.399Z,36.1
2018-08-09T04:40:40.850Z,36.1
2018-08-09T04:41:43.298Z,35.9
2018-08-09T04:42:45.184Z,36.1
2018-08-09T04:43:47.371Z,36.1
2018-08-09T04:44:49.567Z,36
2018-08-09T04:45:52.022Z,36
2018-08-09T04:46:54.475Z,36.1
2018-08-09T04:47:56.923Z,36.1
2018-08-09T04:48:59.161Z,35.9
2018-08-09T04:50:01.605Z,35.9
2018-08-09T04:51:04.071Z,36.1
2018-08-09T04:52:05.973Z,36.2
2018-08-09T04:53:08.422Z,36
2018-08-09T04:54:10.869Z,36
2018-08-09T04:55:13.039Z,36.1
2018-08-09T04:56:15.491Z,36.2
2018-08-09T04:57:17.378Z,36.1
2018-08-09T04:58:19.853Z,36.2
2018-08-09T04:59:22.536Z,36
2018-08-09T05:00:24.985Z,36.1
2018-08-09T05:01:27.160Z,36.1
2018-08-09T05:02:29.345Z,36.1
2018-08-09T05:03:31.791Z,36
2018-08-09T05:04:33.682Z,35.9
2018-08-09T05:05:36.135Z,36.1
2018-08-09T05:06:38.049Z,36.1
2018-08-09T05:07:40.498Z,36
2018-08-09T05:08:42.675Z,36.2
2018-08-09T05:09:45.123Z,36
2018-08-09T05:10:47.301Z,36
2018-08-09T05:11:49.216Z,36
2018-08-09T05:12:51.671Z,36
2018-08-09T05:13:53.845Z,36.1
2018-08-09T05:14:56.017Z,36.1
2018-08-09T05:15:58.220Z,36
2018-08-09T05:17:00.853Z,36.2
2018-08-09T05:18:02.455Z,36
2018-08-09T05:19:04.627Z,36
2018-08-09T05:20:06.779Z,36
2018-08-09T05:21:08.968Z,36.1
2018-08-09T05:22:11.149Z,36
2018-08-09T05:23:13.743Z,36.1
2018-08-09T05:24:15.831Z,36
2018-08-09T05:25:17.438Z,36
2018-08-09T05:26:19.635Z,36.1
2018-08-09T05:27:21.850Z,36.1
2018-08-09T05:28:24.026Z,36
2018-08-09T05:29:26.275Z,36
2018-08-09T05:30:28.493Z,36
2018-08-09T05:31:30.698Z,35.9
2018-08-09T05:32:32.330Z,36.1
2018-08-09T05:33:34.792Z,36.1
2018-08-09T05:34:37.244Z,35.9
2018-08-09T05:35:39.693Z,36.1
2018-08-09T05:36:41.577Z,36.1
2018-08-09T05:37:43.459Z,36
2018-08-09T05:38:45.918Z,36.1
2018-08-09T05:39:48.084Z,36
2018-08-09T05:40:49.992Z,36.1
2018-08-09T05:41:52.166Z,36
2018-08-09T05:42:54.620Z,35.9
2018-08-09T05:43:56.809Z,36.1
2018-08-09T05:44:58.954Z,36.1
2018-08-09T05:46:01.132Z,36.1
2018-08-09T05:47:03.582Z,36.1
2018-08-09T05:48:05.516Z,36.1
2018-08-09T05:49:07.957Z,36.1
2018-08-09T05:50:10.465Z,35.9
2018-08-09T05:51:12.671Z,36.1
2018-08-09T05:52:14.589Z,36.1
2018-08-09T05:53:17.210Z,36.1
2018-08-09T05:54:19.231Z,35.9
2018-08-09T05:55:21.405Z,35.8
2018-08-09T05:56:23.598Z,36.1
2018-08-09T05:57:25.762Z,36
2018-08-09T05:58:28.327Z,36.1
2018-08-09T05:59:30.601Z,35.9
2018-08-09T06:00:33.052Z,36
2018-08-09T06:01:35.257Z,36.1
2018-08-09T06:02:37.715Z,36.1
2018-08-09T06:03:39.892Z,35.9
2018-08-09T06:04:42.067Z,35.9
2018-08-09T06:05:44.244Z,36.1
2018-08-09T06:06:46.695Z,36
2018-08-09T06:07:49.137Z,36
2018-08-09T06:08:51.310Z,35.9
2018-08-09T06:09:53.493Z,35.9
2018-08-09T06:10:55.696Z,36.1
2018-08-09T06:11:57.882Z,35.9
2018-08-09T06:12:59.769Z,35.9
2018-08-09T06:14:01.928Z,35.9
2018-08-09T06:15:04.112Z,36
2018-08-09T06:16:06.253Z,35.9
2018-08-09T06:17:08.698Z,36
2018-08-09T06:18:11.158Z,35.9
2018-08-09T06:19:13.349Z,35.9
2018-08-09T06:20:15.519Z,36
2018-08-09T06:21:17.686Z,35.9
2018-08-09T06:22:20.129Z,36.1
2018-08-09T06:23:22.297Z,36.1
2018-08-09T06:24:24.747Z,36
2018-08-09T06:25:27.222Z,35.8
2018-08-09T06:26:29.943Z,36
2018-08-09T06:27:31.583Z,36.1
2018-08-09T06:28:33.282Z,35.9
2018-08-09T06:29:35.552Z,36
2018-08-09T06:30:38.054Z,36
2018-08-09T06:31:40.506Z,35.9
2018-08-09T06:32:42.970Z,36
2018-08-09T06:33:44.872Z,35.8
2018-08-09T06:34:47.048Z,35.9
2018-08-09T06:35:49.527Z,35.9
2018-08-09T06:36:51.998Z,36
2018-08-09T06:37:54.444Z,35.9
2018-08-09T06:38:56.892Z,35.9
2018-08-09T06:39:59.075Z,36
2018-08-09T06:41:00.995Z,36
2018-08-09T06:42:03.448Z,35.9
2018-08-09T06:43:05.922Z,36
2018-08-09T06:44:08.122Z,35.9
2018-08-09T06:45:10.052Z,35.9
2018-08-09T06:46:11.694Z,35.9
2018-08-09T06:47:13.886Z,35.9
2018-08-09T06:48:16.067Z,35.9
2018-08-09T06:49:18.224Z,35.9
2018-08-09T06:50:20.682Z,35.9
2018-08-09T06:51:22.857Z,36
2018-08-09T06:52:25.043Z,35.8
2018-08-09T06:53:26.971Z,35.9
2018-08-09T06:54:29.424Z,35.8
2018-08-09T06:55:31.880Z,35.8
2018-08-09T06:56:34.335Z,35.8
2018-08-09T06:57:36.528Z,35.8
2018-08-09T06:58:38.977Z,35.8
2018-08-09T06:59:41.156Z,35.9
2018-08-09T07:00:43.072Z,35.8
2018-08-09T07:01:45.246Z,35.9
2018-08-09T07:02:47.413Z,35.9
2018-08-09T07:03:49.589Z,35.9
2018-08-09T07:04:52.037Z,36.1
2018-08-09T07:05:54.214Z,35.9
2018-08-09T07:06:56.809Z,36
2018-08-09T07:07:59.524Z,35.8
2018-08-09T07:09:01.976Z,35.8
2018-08-09T07:10:03.855Z,35.9
2018-08-09T07:11:06.304Z,35.8
2018-08-09T07:12:08.454Z,36
2018-08-09T07:13:10.597Z,36
2018-08-09T07:14:13.052Z,35.9
2018-08-09T07:15:15.488Z,35.8
2018-08-09T07:16:17.949Z,35.9
2018-08-09T07:17:20.398Z,35.8
2018-08-09T07:18:22.576Z,36
2018-08-09T07:19:24.730Z,35.8
2018-08-09T07:20:26.730Z,35.8
2018-08-09T07:21:28.883Z,35.9
2018-08-09T07:22:31.059Z,35.9
2018-08-09T07:23:33.256Z,35.8
2018-08-09T07:24:34.893Z,35.9
2018-08-09T07:25:37.083Z,35.8
2018-08-09T07:26:39.546Z,35.8
2018-08-09T07:27:41.740Z,35.9
2018-08-09T07:28:44.195Z,35.7
2018-08-09T07:29:46.112Z,35.9
2018-08-09T07:30:48.577Z,35.8
2018-08-09T07:31:50.484Z,35.8
2018-08-09T07:32:52.664Z,35.9
2018-08-09T07:33:55.035Z,35.8
2018-08-09T07:34:57.755Z,35.7
2018-08-09T07:36:00.200Z,35.7
2018-08-09T07:37:02.115Z,35.7
2018-08-09T07:38:04.263Z,35.8
2018-08-09T07:39:06.712Z,35.8
2018-08-09T07:40:08.893Z,35.8
2018-08-09T07:41:10.508Z,35.9
2018-08-09T07:42:12.715Z,35.8
2018-08-09T07:43:14.914Z,35.8
2018-08-09T07:44:16.794Z,35.8
2018-08-09T07:45:19.251Z,35.8
2018-08-09T07:46:21.716Z,35.8
2018-08-09T07:47:23.877Z,35.8
2018-08-09T07:48:25.879Z,35.9
2018-08-09T07:49:27.884Z,35.8
2018-08-09T07:50:30.384Z,35.9
2018-08-09T07:51:32.585Z,35.8
2018-08-09T07:52:35.022Z,35.8
2018-08-09T07:53:37.202Z,35.9
2018-08-09T07:54:39.411Z,35.7
2018-08-09T07:55:41.574Z,35.7
2018-08-09T07:56:43.743Z,35.7
2018-08-09T07:57:45.635Z,35.8
2018-08-09T07:58:47.855Z,35.9
2018-08-09T07:59:50.312Z,36
2018-08-09T08:00:52.497Z,35.8
2018-08-09T08:01:54.983Z,35.8
2018-08-09T08:02:57.159Z,35.6
2018-08-09T08:03:59.334Z,35.9
2018-08-09T08:05:01.798Z,35.8
2018-08-09T08:06:04.300Z,35.8
2018-08-09T08:07:06.662Z,35.9
2018-08-09T08:08:08.820Z,36
2018-08-09T08:09:11.280Z,35.8
2018-08-09T08:10:13.448Z,35.8
2018-08-09T08:11:15.908Z,35.6
2018-08-09T08:12:17.822Z,35.7
2018-08-09T08:13:20.257Z,35.6
2018-08-09T08:14:22.165Z,35.7
2018-08-09T08:15:24.614Z,35.7
2018-08-09T08:16:26.793Z,35.7
2018-08-09T08:17:28.941Z,35.9
2018-08-09T08:18:31.389Z,35.9
2018-08-09T08:19:33.586Z,35.7
2018-08-09T08:20:35.547Z,35.8
2018-08-09T08:21:38.187Z,35.8
2018-08-09T08:22:40.380Z,35.8
2018-08-09T08:23:42.840Z,35.8
2018-08-09T08:24:44.712Z,35.6
2018-08-09T08:25:47.195Z,35.8
2018-08-09T08:26:49.582Z,35.8
2018-08-09T08:27:52.100Z,35.6
2018-08-09T08:28:54.260Z,35.8
2018-08-09T08:29:56.160Z,35.9
2018-08-09T08:30:58.626Z,35.8
2018-08-09T08:32:00.790Z,35.7
2018-08-09T08:33:02.927Z,35.8
2018-08-09T08:34:05.102Z,35.7
2018-08-09T08:35:07.291Z,35.7
2018-08-09T08:36:09.746Z,35.8
2018-08-09T08:37:11.929Z,35.8
2018-08-09T08:38:14.101Z,35.8
2018-08-09T08:39:16.558Z,35.8
2018-08-09T08:40:18.751Z,35.8
2018-08-09T08:41:21.096Z,35.7
2018-08-09T08:42:23.447Z,35.7
2018-08-09T08:43:25.602Z,35.9
2018-08-09T08:44:27.509Z,35.8
2018-08-09T08:45:29.961Z,35.8
2018-08-09T08:46:32.401Z,35.8
2018-08-09T08:47:34.070Z,35.7
2018-08-09T08:48:36.569Z,35.7
2018-08-09T08:49:39.018Z,35.8
2018-08-09T08:50:41.194Z,35.8
2018-08-09T08:51:43.078Z,35.7
2018-08-09T08:52:45.260Z,35.8
2018-08-09T08:53:47.703Z,35.8
2018-08-09T08:54:49.846Z,35.7
2018-08-09T08:55:52.023Z,35.8
2018-08-09T08:56:53.907Z,35.8
2018-08-09T08:57:56.079Z,35.9
2018-08-09T08:58:57.962Z,35.7
2018-08-09T09:00:00.145Z,35.9
2018-08-09T09:01:02.734Z,35.6
2018-08-09T09:02:05.555Z,35.8
2018-08-09T09:03:07.507Z,35.8
2018-08-09T09:04:09.741Z,35.9
2018-08-09T09:05:12.553Z,35.9
2018-08-09T09:06:15.200Z,35.8
2018-08-09T09:07:17.413Z,35.8
2018-08-09T09:08:19.581Z,35.8
2018-08-09T09:09:21.745Z,35.9
2018-08-09T09:10:23.968Z,35.7
2018-08-09T09:11:26.137Z,35.7
2018-08-09T09:12:28.595Z,35.8
2018-08-09T09:13:31.056Z,35.8
2018-08-09T09:14:33.199Z,35.7
2018-08-09T09:15:35.385Z,35.9
2018-08-09T09:16:37.291Z,35.7
2018-08-09T09:17:39.749Z,35.7
2018-08-09T09:18:42.193Z,35.9
2018-08-09T09:19:44.639Z,35.8
2018-08-09T09:20:46.542Z,35.7
2018-08-09T09:21:49.002Z,35.7
2018-08-09T09:22:51.192Z,35.7
2018-08-09T09:23:53.370Z,35.9
2018-08-09T09:24:55.247Z,35.7
2018-08-09T09:25:57.420Z,35.7
2018-08-09T09:26:59.980Z,35.8
2018-08-09T09:28:02.700Z,35.8
2018-08-09T09:29:04.876Z,35.8
2018-08-09T09:30:06.753Z,35.7
2018-08-09T09:31:09.215Z,35.7
2018-08-09T09:32:11.388Z,35.8
2018-08-09T09:33:13.843Z,35.9
2018-08-09T09:34:16.301Z,35.8
2018-08-09T09:35:18.752Z,35.8
2018-08-09T09:36:20.920Z,35.6
2018-08-09T09:37:23.098Z,36
2018-08-09T09:38:25.014Z,35.9
2018-08-09T09:39:26.670Z,35.7
2018-08-09T09:40:28.850Z,35.7
2018-08-09T09:41:30.179Z,35.8
2018-08-09T09:42:32.642Z,35.8
2018-08-09T09:43:34.806Z,35.8
2018-08-09T09:44:37.272Z,35.9
2018-08-09T09:45:39.737Z,35.8
2018-08-09T09:46:41.922Z,35.8
2018-08-09T09:47:44.098Z,35.9
2018-08-09T09:48:46.590Z,35.8
2018-08-09T09:49:48.780Z,35.9
2018-08-09T09:50:51.468Z,35.8
2018-08-09T09:51:53.393Z,35.8
2018-08-09T09:52:55.572Z,35.8
2018-08-09T09:53:58.023Z,35.9
2018-08-09T09:55:00.308Z,35.8
2018-08-09T09:56:02.736Z,36
2018-08-09T09:57:05.400Z,35.8
2018-08-09T09:58:07.856Z,35.8
2018-08-09T09:59:10.300Z,35.7
2018-08-09T10:00:12.757Z,35.8
2018-08-09T10:01:14.930Z,35.8
2018-08-09T10:02:17.386Z,35.7
2018-08-09T10:03:19.567Z,35.9
2018-08-09T10:04:21.750Z,35.9
2018-08-09T10:05:23.894Z,35.7
2018-08-09T10:06:26.052Z,35.7
2018-08-09T10:07:28.522Z,35.8
2018-08-09T10:08:30.704Z,35.7
2018-08-09T10:09:33.215Z,35.9
2018-08-09T10:10:35.445Z,35.8
2018-08-09T10:11:37.890Z,35.9
2018-08-09T10:12:39.832Z,35.7
2018-08-09T10:13:41.807Z,35.9
2018-08-09T10:14:44.117Z,35.8
2018-08-09T10:15:46.656Z,36
2018-08-09T10:16:48.547Z,35.8
2018-08-09T10:17:50.717Z,35.7
2018-08-09T10:18:52.900Z,35.8
2018-08-09T10:19:55.091Z,35.7
2018-08-09T10:20:57.547Z,36
2018-08-09T10:21:59.987Z,36
2018-08-09T10:23:02.459Z,35.9
2018-08-09T10:24:04.662Z,35.8
2018-08-09T10:25:06.835Z,35.8
2018-08-09T10:26:08.757Z,36
2018-08-09T10:27:11.217Z,35.8
2018-08-09T10:28:13.388Z,35.7
2018-08-09T10:29:15.571Z,35.9
2018-08-09T10:30:17.756Z,35.9
2018-08-09T10:31:19.915Z,35.9
2018-08-09T10:32:21.248Z,35.8
2018-08-09T10:33:23.430Z,35.9
2018-08-09T10:34:25.606Z,35.9
2018-08-09T10:35:27.548Z,35.9
2018-08-09T10:36:29.517Z,35.9
2018-08-09T10:37:31.986Z,35.8
2018-08-09T10:38:34.167Z,35.8
2018-08-09T10:39:36.349Z,35.8
2018-08-09T10:40:38.790Z,35.8
2018-08-09T10:41:40.971Z,35.9
2018-08-09T10:42:43.548Z,36
2018-08-09T10:43:46.229Z,35.8
2018-08-09T10:44:48.131Z,35.9
2018-08-09T10:45:50.354Z,35.9
2018-08-09T10:46:52.540Z,35.9
2018-08-09T10:48:09.395Z,35.9
2018-08-09T10:49:11.565Z,35.7
2018-08-09T10:50:13.753Z,36
2018-08-09T10:51:15.909Z,35.9
2018-08-09T10:52:17.509Z,36
2018-08-09T10:53:19.967Z,36
2018-08-09T10:54:22.158Z,35.9
2018-08-09T10:55:24.069Z,35.9
2018-08-09T10:56:25.673Z,36
2018-08-09T10:57:27.824Z,35.9
2018-08-09T10:58:30.035Z,35.9
2018-08-09T10:59:32.480Z,36
2018-08-09T11:00:34.663Z,35.9
2018-08-09T11:01:37.157Z,35.8
2018-08-09T11:02:39.374Z,35.9
2018-08-09T11:03:41.542Z,35.7
2018-08-09T11:04:43.995Z,35.8
2018-08-09T11:05:46.170Z,36.1
2018-08-09T11:06:48.625Z,35.9
2018-08-09T11:07:51.082Z,35.7
2018-08-09T11:08:53.259Z,36
2018-08-09T11:09:55.707Z,35.9
2018-08-09T11:10:57.896Z,35.7
2018-08-09T11:12:00.085Z,36
2018-08-09T11:13:02.514Z,36
2018-08-09T11:14:04.707Z,35.9
2018-08-09T11:15:06.991Z,35.9
2018-08-09T11:16:09.342Z,35.9
2018-08-09T11:17:11.790Z,35.8
2018-08-09T11:18:13.984Z,35.8
2018-08-09T11:19:16.427Z,36
2018-08-09T11:20:18.604Z,35.9
2018-08-09T11:21:21.057Z,35.8
2018-08-09T11:22:23.502Z,35.9
2018-08-09T11:23:25.680Z,35.9
2018-08-09T11:24:28.147Z,35.8
2018-08-09T11:25:30.008Z,36
2018-08-09T11:26:32.444Z,35.9
2018-08-09T11:27:33.518Z,36
2018-08-09T11:28:35.965Z,35.9
2018-08-09T11:29:38.428Z,36
2018-08-09T11:30:40.611Z,35.8
2018-08-09T11:31:43.048Z,35.9
2018-08-09T11:32:45.530Z,35.9
2018-08-09T11:33:47.981Z,36
2018-08-09T11:34:50.430Z,36
2018-08-09T11:35:52.608Z,36.1
2018-08-09T11:36:54.792Z,35.9
2018-08-09T11:37:57.251Z,35.9
2018-08-09T11:38:59.431Z,36
2018-08-09T11:40:16.533Z,35.9
2018-08-09T11:41:18.701Z,35.9
2018-08-09T11:42:20.867Z,36
2018-08-09T11:43:22.483Z,35.8
2018-08-09T11:44:24.391Z,35.9
2018-08-09T11:45:26.584Z,36.1
2018-08-09T11:46:28.766Z,36
2018-08-09T11:47:31.217Z,36
2018-08-09T11:48:33.133Z,35.8
2018-08-09T11:49:35.064Z,36
2018-08-09T11:50:36.696Z,36
2018-08-09T11:51:38.876Z,36
2018-08-09T11:52:41.327Z,35.8
2018-08-09T11:53:43.784Z,36
2018-08-09T11:54:46.241Z,36
2018-08-09T11:55:48.677Z,36
2018-08-09T11:56:50.579Z,36
2018-08-09T11:57:52.798Z,36
2018-08-09T11:58:55.267Z,36
2018-08-09T11:59:57.434Z,36.1
2018-08-09T12:00:59.917Z,35.9
2018-08-09T12:02:02.366Z,35.7
2018-08-09T12:03:04.804Z,35.9
2018-08-09T12:04:06.701Z,35.9
2018-08-09T12:05:09.185Z,35.9
2018-08-09T12:06:11.400Z,35.9
2018-08-09T12:07:14.066Z,35.8
2018-08-09T12:08:15.950Z,36
2018-08-09T12:09:17.849Z,35.9
2018-08-09T12:10:19.814Z,36
2018-08-09T12:11:22.261Z,35.9
2018-08-09T12:12:24.725Z,36.1
2018-08-09T12:13:27.260Z,35.9
2018-08-09T12:14:29.817Z,35.9
2018-08-09T12:15:31.439Z,35.9
2018-08-09T12:16:33.898Z,36
2018-08-09T12:17:36.065Z,36.1
2018-08-09T12:18:38.275Z,36.1
2018-08-09T12:19:40.724Z,36
2018-08-09T12:20:43.007Z,35.9
2018-08-09T12:21:45.876Z,35.9
2018-08-09T12:22:47.799Z,36
2018-08-09T12:23:49.985Z,36.1
2018-08-09T12:24:52.166Z,36.1
2018-08-09T12:25:54.340Z,35.9
2018-08-09T12:26:56.277Z,36
2018-08-09T12:27:58.898Z,36
2018-08-09T12:29:01.076Z,36
2018-08-09T12:30:03.004Z,35.9
2018-08-09T12:31:05.192Z,36
2018-08-09T12:32:07.644Z,36.1
2018-08-09T12:33:09.865Z,36
2018-08-09T12:34:12.125Z,35.9
2018-08-09T12:35:14.286Z,36.1
2018-08-09T12:36:16.196Z,36
2018-08-09T12:37:18.102Z,36.1
2018-08-09T12:38:20.562Z,36.1
2018-08-09T12:39:23.008Z,36.1
2018-08-09T12:40:25.178Z,35.9
2018-08-09T12:41:27.368Z,36.1
2018-08-09T12:42:29.563Z,36
2018-08-09T12:43:31.736Z,36
2018-08-09T12:44:33.649Z,36.2
2018-08-09T12:45:35.607Z,36
2018-08-09T12:46:38.257Z,36
2018-08-09T12:47:40.730Z,36.1
2018-08-09T12:48:43.182Z,36
2018-08-09T12:49:45.626Z,36
2018-08-09T12:50:48.196Z,36
2018-08-09T12:51:50.555Z,36
2018-08-09T12:52:53.002Z,36
2018-08-09T12:53:54.652Z,36
2018-08-09T12:54:57.124Z,36
2018-08-09T12:55:59.595Z,36.1
2018-08-09T12:57:01.780Z,35.9
2018-08-09T12:58:03.962Z,36
2018-08-09T12:59:06.146Z,36.1
2018-08-09T13:00:08.832Z,36.1
2018-08-09T13:01:11.308Z,36.1
2018-08-09T13:02:12.660Z,36.1
2018-08-09T13:03:14.544Z,36.2
2018-08-09T13:04:16.995Z,36
2018-08-09T13:05:19.438Z,36.1
2018-08-09T13:06:21.087Z,35.9
2018-08-09T13:07:22.975Z,36.1
2018-08-09T13:08:25.538Z,36.1
2018-08-09T13:09:27.847Z,36.1
2018-08-09T13:10:30.009Z,36.1
2018-08-09T13:11:31.929Z,36
2018-08-09T13:12:33.819Z,36
2018-08-09T13:13:36.026Z,36.2
2018-08-09T13:14:38.477Z,35.9
2018-08-09T13:15:40.647Z,36
2018-08-09T13:16:43.138Z,36.1
2018-08-09T13:17:45.066Z,36
2018-08-09T13:18:46.731Z,36
2018-08-09T13:19:49.180Z,36.1
2018-08-09T13:20:51.357Z,36.1
2018-08-09T13:21:53.796Z,36
2018-08-09T13:22:56.266Z,36.1
2018-08-09T13:23:58.725Z,36.1
2018-08-09T13:25:01.169Z,36.1
2018-08-09T13:26:03.626Z,36
2018-08-09T13:27:06.086Z,36.1
2018-08-09T13:28:11.305Z,36.1
2018-08-09T13:29:13.482Z,36
2018-08-09T13:30:16.009Z,35.9
2018-08-09T13:31:18.715Z,36.1
2018-08-09T13:32:20.896Z,36.1
2018-08-09T13:33:23.339Z,36
2018-08-09T13:34:25.825Z,36.2
2018-08-09T13:35:28.283Z,36.1
2018-08-09T13:36:30.775Z,36.1
2018-08-09T13:37:33.227Z,36.1
2018-08-09T13:38:35.405Z,36.1
2018-08-09T13:39:37.855Z,36
2018-08-09T13:40:40.032Z,36.1
2018-08-09T13:41:42.491Z,36
2018-08-09T13:42:44.644Z,36.1
2018-08-09T13:43:47.122Z,35.8
2018-08-09T13:44:49.581Z,35.9
2018-08-09T13:45:52.027Z,36.1
2018-08-09T13:46:53.915Z,36.1
2018-08-09T13:47:55.826Z,36
2018-08-09T13:48:58.291Z,36
2018-08-09T13:50:00.209Z,36
2018-08-09T13:51:02.389Z,36
2018-08-09T13:52:04.853Z,36.1
2018-08-09T13:53:07.031Z,36
2018-08-09T13:54:09.205Z,35.9
2018-08-09T13:55:11.358Z,36.1
2018-08-09T13:56:13.535Z,36
2018-08-09T13:57:15.718Z,36.1
2018-08-09T13:58:17.985Z,36
2018-08-09T13:59:20.287Z,36
2018-08-09T14:00:22.450Z,36.1
2018-08-09T14:01:24.648Z,35.7